Observation data for Fluvanna on 02/12/2018      Previous  Date  Next       Current Mesonet Observations  Soil Data  Daily Summary Page  Observations in Plain Language
KFVS 120600Z 07005KT M03/M14 A3023 RMK A01 T10291138  RH  044%=      5-min Rain = 0
KFVS 120605Z 07005KT M04/M14 A3023 RMK A01 T10351142  RH  044%=      5-min Rain = 0
KFVS 120610Z 07005KT M04/M14 A3023 RMK A01 T10411143  RH  046%=      5-min Rain = 0
KFVS 120615Z 08005KT M04/M14 A3024 RMK A01 T10401139  RH  047%=      5-min Rain = 0
KFVS 120620Z 10005KT M03/M14 A3024 RMK A01 T10341137  RH  046%=      5-min Rain = 0
KFVS 120625Z 11005KT M03/M14 A3025 RMK A01 T10301136  RH  044%=      5-min Rain = 0
KFVS 120630Z 11006KT M03/M14 A3025 RMK A01 T10291138  RH  043%=      5-min Rain = 0
KFVS 120635Z 12007KT M03/M14 A3025 RMK A01 T10321141  RH  044%=      5-min Rain = 0
KFVS 120640Z 13007KT M04/M14 A3025 RMK A01 T10371143  RH  045%=      5-min Rain = 0
KFVS 120645Z 13006KT M04/M14 A3025 RMK A01 T10391142  RH  045%=      5-min Rain = 0
KFVS 120650Z 13007KT M04/M15 A3025 RMK A01 T10391145  RH  044%=      5-min Rain = 0
KFVS 120655Z 14007KT M04/M15 A3026 RMK A01 T10411145  RH  045%=      5-min Rain = 0
KFVS 120700Z 13006KT M04/M14 A3026 RMK A01 T10401144  RH  045%=      5-min Rain = 0
KFVS 120705Z 12006KT M04/M14 A3026 RMK A01 T10401143  RH  045%=      5-min Rain = 0
KFVS 120710Z 12006KT M04/M14 A3026 RMK A01 T10411141  RH  046%=      5-min Rain = 0
KFVS 120715Z 13006KT M04/M14 A3026 RMK A01 T10431143  RH  046%=      5-min Rain = 0
KFVS 120720Z 12008KT M05/M15 A3026 RMK A01 T10471145  RH  047%=      5-min Rain = 0
KFVS 120725Z 12007KT M05/M15 A3026 RMK A01 T10491145  RH  048%=      5-min Rain = 0
KFVS 120730Z 13007KT M05/M15 A3026 RMK A01 T10501146  RH  048%=      5-min Rain = 0
KFVS 120735Z 12006KT M05/M15 A3026 RMK A01 T10521148  RH  047%=      5-min Rain = 0
KFVS 120740Z 12006KT M05/M15 A3027 RMK A01 T10531148  RH  048%=      5-min Rain = 0
KFVS 120745Z 12006KT M05/M15 A3027 RMK A01 T10531146  RH  048%=      5-min Rain = 0
KFVS 120750Z 11006KT M05/M14 A3027 RMK A01 T10521144  RH  049%=      5-min Rain = 0
KFVS 120755Z 12005KT M05/M14 A3028 RMK A01 T10501143  RH  049%=      5-min Rain = 0
KFVS 120800Z 12005KT M05/M14 A3027 RMK A01 T10481143  RH  048%=      5-min Rain = 0
KFVS 120805Z 12006KT M05/M14 A3027 RMK A01 T10491144  RH  048%=      5-min Rain = 0
KFVS 120810Z 13006KT M05/M15 A3028 RMK A01 T10511145  RH  049%=      5-min Rain = 0
KFVS 120815Z 13006KT M05/M15 A3028 RMK A01 T10531146  RH  049%=      5-min Rain = 0
KFVS 120820Z 12006KT M06/M15 A3028 RMK A01 T10561145  RH  050%=      5-min Rain = 0
KFVS 120825Z 12006KT M06/M14 A3028 RMK A01 T10561143  RH  051%=      5-min Rain = 0
KFVS 120830Z 12006KT M05/M14 A3027 RMK A01 T10511141  RH  050%=      5-min Rain = 0
KFVS 120835Z 12007KT M05/M14 A3027 RMK A01 T10491140  RH  049%=      5-min Rain = 0
KFVS 120840Z 13007KT M05/M14 A3027 RMK A01 T10501140  RH  050%=      5-min Rain = 0
KFVS 120845Z 12006KT M05/M14 A3027 RMK A01 T10511139  RH  051%=      5-min Rain = 0
KFVS 120850Z 12006KT M05/M14 A3028 RMK A01 T10511139  RH  051%=      5-min Rain = 0
KFVS 120855Z 11005KT M05/M14 A3028 RMK A01 T10501139  RH  051%=      5-min Rain = 0
KFVS 120900Z 11005KT M05/M14 A3028 RMK A01 T10501139  RH  050%=      5-min Rain = 0
KFVS 120905Z 11005KT M05/M14 A3028 RMK A01 T10501140  RH  050%=      5-min Rain = 0
KFVS 120910Z 12005KT M05/M14 A3028 RMK A01 T10491140  RH  050%=      5-min Rain = 0
KFVS 120915Z 12005KT M05/M14 A3027 RMK A01 T10481139  RH  050%=      5-min Rain = 0
KFVS 120920Z 11005KT M05/M14 A3028 RMK A01 T10491138  RH  050%=      5-min Rain = 0
KFVS 120925Z 13004KT M05/M14 A3028 RMK A01 T10471137  RH  050%=      5-min Rain = 0
KFVS 120930Z 12004KT M04/M13 A3028 RMK A01 T10431134  RH  050%=      5-min Rain = 0
KFVS 120935Z 11004KT M04/M14 A3027 RMK A01 T10411135  RH  049%=      5-min Rain = 0
KFVS 120940Z 11004KT M04/M14 A3027 RMK A01 T10441137  RH  049%=      5-min Rain = 0
KFVS 120945Z 10004KT M05/M14 A3027 RMK A01 T10451137  RH  049%=      5-min Rain = 0
KFVS 120950Z 09004KT M05/M14 A3027 RMK A01 T10481137  RH  050%=      5-min Rain = 0
KFVS 120955Z 10003KT M05/M14 A3028 RMK A01 T10491135  RH  052%=      5-min Rain = 0
KFVS 121000Z 08004KT M05/M13 A3028 RMK A01 T10471134  RH  051%=      5-min Rain = 0
KFVS 121005Z 07004KT M05/M13 A3027 RMK A01 T10451134  RH  051%=      5-min Rain = 0
KFVS 121010Z 07005KT M05/M13 A3027 RMK A01 T10471132  RH  052%=      5-min Rain = 0
KFVS 121015Z 08005KT M05/M13 A3027 RMK A01 T10461130  RH  052%=      5-min Rain = 0
KFVS 121020Z 08005KT M04/M13 A3027 RMK A01 T10431129  RH  052%=      5-min Rain = 0
KFVS 121025Z 08005KT M04/M13 A3027 RMK A01 T10411129  RH  051%=      5-min Rain = 0
KFVS 121030Z 09004KT M04/M13 A3028 RMK A01 T10401129  RH  051%=      5-min Rain = 0
KFVS 121035Z 07004KT M04/M13 A3028 RMK A01 T10401130  RH  050%=      5-min Rain = 0
KFVS 121040Z 07003KT M04/M13 A3029 RMK A01 T10411131  RH  050%=      5-min Rain = 0
KFVS 121045Z 09002KT M04/M13 A3029 RMK A01 T10401131  RH  050%=      5-min Rain = 0
KFVS 121050Z 09003KT M04/M13 A3029 RMK A01 T10381132  RH  049%=      5-min Rain = 0
KFVS 121055Z 09004KT M04/M13 A3029 RMK A01 T10361131  RH  048%=      5-min Rain = 0
KFVS 121100Z 08005KT M04/M13 A3029 RMK A01 T10351132  RH  048%=      5-min Rain = 0
KFVS 121105Z 08005KT M04/M13 A3029 RMK A01 T10401133  RH  049%=      5-min Rain = 0
KFVS 121110Z 08005KT M04/M13 A3029 RMK A01 T10441133  RH  051%=      5-min Rain = 0
KFVS 121115Z 08006KT M05/M13 A3029 RMK A01 T10451132  RH  051%=      5-min Rain = 0
KFVS 121120Z 08006KT M05/M13 A3028 RMK A01 T10451131  RH  052%=      5-min Rain = 0
KFVS 121125Z 07005KT M05/M13 A3028 RMK A01 T10451131  RH  052%=      5-min Rain = 0
KFVS 121130Z 08005KT M05/M13 A3029 RMK A01 T10461131  RH  052%=      5-min Rain = 0
KFVS 121135Z 06004KT M05/M13 A3029 RMK A01 T10461132  RH  052%=      5-min Rain = 0
KFVS 121140Z 04004KT M05/M13 A303 RMK A01 T10461132  RH  052%=      5-min Rain = 0
KFVS 121145Z 05003KT M05/M13 A303 RMK A01 T10451133  RH  051%=      5-min Rain = 0
KFVS 121150Z 05005KT M04/M13 A303 RMK A01 T10411127  RH  052%=      5-min Rain = 0
KFVS 121155Z 05004KT M04/M13 A303 RMK A01 T10391126  RH  051%=      5-min Rain = 0
KFVS 121200Z 05003KT M04/M13 A303 RMK A01 T10381127  RH  051%=      5-min Rain = 0
KFVS 121205Z 07004KT M04/M13 A303 RMK A01 T10391128  RH  051%=      5-min Rain = 0
KFVS 121210Z 08005KT M04/M13 A3029 RMK A01 T10401126  RH  052%=      5-min Rain = 0
KFVS 121215Z 08005KT M04/M13 A3029 RMK A01 T10401127  RH  052%=      5-min Rain = 0
KFVS 121220Z 07007KT M04/M13 A3028 RMK A01 T10401128  RH  051%=      5-min Rain = 0
KFVS 121225Z 09004KT M04/M13 A3029 RMK A01 T10371128  RH  050%=      5-min Rain = 0
KFVS 121230Z 11005KT M03/M13 A303 RMK A01 T10341128  RH  049%=      5-min Rain = 0
KFVS 121235Z 10005KT M04/M13 A303 RMK A01 T10351127  RH  050%=      5-min Rain = 0
KFVS 121240Z 10004KT M04/M13 A303 RMK A01 T10351128  RH  050%=      5-min Rain = 0
KFVS 121245Z 10003KT M04/M13 A303 RMK A01 T10361128  RH  050%=      5-min Rain = 0
KFVS 121250Z 09005KT M04/M13 A3029 RMK A01 T10381128  RH  050%=      5-min Rain = 0
KFVS 121255Z 08005KT M04/M13 A3029 RMK A01 T10401129  RH  051%=      5-min Rain = 0
KFVS 121300Z 08006KT M04/M13 A3028 RMK A01 T10421129  RH  052%=      5-min Rain = 0
KFVS 121305Z 09006KT M04/M13 A3029 RMK A01 T10411128  RH  052%=      5-min Rain = 0
KFVS 121310Z 09004KT M04/M13 A303 RMK A01 T10391128  RH  051%=      5-min Rain = 0
KFVS 121315Z 08004KT M04/M13 A303 RMK A01 T10391129  RH  050%=      5-min Rain = 0
KFVS 121320Z 08005KT M04/M13 A303 RMK A01 T10401129  RH  050%=      5-min Rain = 0
KFVS 121325Z 08007KT M04/M13 A303 RMK A01 T10411128  RH  052%=      5-min Rain = 0
KFVS 121330Z 08008KT M04/M13 A3029 RMK A01 T10421127  RH  052%=      5-min Rain = 0
KFVS 121335Z 09007KT M04/M13 A3029 RMK A01 T10411127  RH  052%=      5-min Rain = 0
KFVS 121340Z 10004KT M04/M13 A303 RMK A01 T10401127  RH  051%=      5-min Rain = 0
KFVS 121345Z 10004KT M04/M13 A3031 RMK A01 T10411128  RH  052%=      5-min Rain = 0
KFVS 121350Z 11004KT M04/M13 A3031 RMK A01 T10431129  RH  052%=      5-min Rain = 0
KFVS 121355Z 11004KT M04/M13 A3031 RMK A01 T10431129  RH  052%=      5-min Rain = 0
KFVS 121400Z 08005KT M04/M13 A3031 RMK A01 T10421128  RH  052%=      5-min Rain = 0
KFVS 121405Z 08005KT M04/M13 A303 RMK A01 T10401127  RH  052%=      5-min Rain = 0
KFVS 121410Z 08006KT M04/M12 A303 RMK A01 T10361124  RH  051%=      5-min Rain = 0
KFVS 121415Z 07005KT M03/M12 A3031 RMK A01 T10321123  RH  050%=      5-min Rain = 0
KFVS 121420Z 07006KT M03/M12 A3032 RMK A01 T10301123  RH  050%=      5-min Rain = 0
KFVS 121425Z 09005KT M03/M12 A3032 RMK A01 T10251120  RH  049%=      5-min Rain = 0
KFVS 121430Z 07004KT M02/M12 A3033 RMK A01 T10231122  RH  047%=      5-min Rain = 0
KFVS 121435Z 08005KT M02/M12 A3032 RMK A01 T10241122  RH  048%=      5-min Rain = 0
KFVS 121440Z 09004KT M02/M12 A3032 RMK A01 T10231121  RH  048%=      5-min Rain = 0
KFVS 121445Z 08005KT M02/M12 A3032 RMK A01 T10191119  RH  047%=      5-min Rain = 0
KFVS 121450Z 09008KT M02/M12 A3032 RMK A01 T10171119  RH  046%=      5-min Rain = 0
KFVS 121455Z 09006KT M02/M12 A3032 RMK A01 T10161118  RH  046%=      5-min Rain = 0
KFVS 121500Z 09007KT M01/M12 A3032 RMK A01 T10121118  RH  045%=      5-min Rain = 0
KFVS 121505Z 09006KT M01/M12 A3032 RMK A01 T10141120  RH  045%=      5-min Rain = 0
KFVS 121510Z 10007KT M01/M12 A3032 RMK A01 T10131118  RH  045%=      5-min Rain = 0
KFVS 121515Z 10006KT M01/M12 A3033 RMK A01 T10081117  RH  044%=      5-min Rain = 0
KFVS 121520Z 09006KT M01/M12 A3033 RMK A01 T10051116  RH  043%=      5-min Rain = 0
KFVS 121525Z 08007KT M01/M12 A3033 RMK A01 T10051118  RH  043%=      5-min Rain = 0
KFVS 121530Z 08007KT M00/M12 A3033 RMK A01 T10031117  RH  043%=      5-min Rain = 0
KFVS 121535Z 08008KT 00/12 A3033 RMK A01 T00-00-118  RH  041%=      5-min Rain = 0
KFVS 121540Z 10008KT 00/12 A3034 RMK A01 T00000-118  RH  041%=      5-min Rain = 0
KFVS 121545Z 11008KT 00/M12 A3034 RMK A01 T00011118  RH  041%=      5-min Rain = 0
KFVS 121550Z 09007KT 00/M12 A3034 RMK A01 T00021118  RH  041%=      5-min Rain = 0
KFVS 121555Z 07007KT 00/M12 A3034 RMK A01 T00021118  RH  040%=      5-min Rain = 0
KFVS 121600Z 09008KT 01/M12 A3034 RMK A01 T00051118  RH  040%=      5-min Rain = 0
KFVS 121605Z 08008KT 01/M12 A3033 RMK A01 T00091118  RH  039%=      5-min Rain = 0
KFVS 121610Z 07007KT 01/M12 A3033 RMK A01 T00111119  RH  038%=      5-min Rain = 0
KFVS 121615Z 09006KT 01/M12 A3033 RMK A01 T00111118  RH  038%=      5-min Rain = 0
KFVS 121620Z 07007KT 01/M12 A3033 RMK A01 T00141123  RH  036%=      5-min Rain = 0
KFVS 121625Z 07008KT 01/M12 A3033 RMK A01 T00091122  RH  037%=      5-min Rain = 0
KFVS 121630Z 08009G14KT 01/M12 A3033 RMK A01 T00131122  RH  037%=      5-min Rain = 0
KFVS 121635Z 07009KT 02/M12 A3033 RMK A01 T00191123  RH  035%=      5-min Rain = 0
KFVS 121640Z 07009KT 02/M12 A3033 RMK A01 T00191124  RH  034%=      5-min Rain = 0
KFVS 121645Z 09010KT 02/M12 A3033 RMK A01 T00211123  RH  034%=      5-min Rain = 0
KFVS 121650Z 08009KT 02/M12 A3033 RMK A01 T00211124  RH  034%=      5-min Rain = 0
KFVS 121655Z 08009KT 02/M12 A3033 RMK A01 T00231123  RH  034%=      5-min Rain = 0
KFVS 121700Z 09009KT 03/M12 A3033 RMK A01 T00271122  RH  033%=      5-min Rain = 0
KFVS 121705Z 10009KT 03/M12 A3033 RMK A01 T00281122  RH  033%=      5-min Rain = 0
KFVS 121710Z 09009G14KT 03/M12 A3033 RMK A01 T00281120  RH  033%=      5-min Rain = 0
KFVS 121715Z 10011G16KT 03/M12 A3033 RMK A01 T00321120  RH  032%=      5-min Rain = 0
KFVS 121720Z 10010KT 03/M12 A3033 RMK A01 T00331118  RH  032%=      5-min Rain = 0
KFVS 121725Z 09010KT 04/M12 A3032 RMK A01 T00351117  RH  032%=      5-min Rain = 0
KFVS 121730Z 10011KT 04/M12 A3032 RMK A01 T00391115  RH  032%=      5-min Rain = 0
KFVS 121735Z 09011KT 04/M12 A3032 RMK A01 T00351117  RH  032%=      5-min Rain = 0
KFVS 121740Z 11011G16KT 04/M12 A3032 RMK A01 T00361115  RH  032%=      5-min Rain = 0
KFVS 121745Z 11012KT 04/M11 A3032 RMK A01 T00391114  RH  032%=      5-min Rain = 0
KFVS 121750Z 11011KT 04/M11 A3032 RMK A01 T00401114  RH  032%=      5-min Rain = 0
KFVS 121755Z 11009KT 04/M12 A3031 RMK A01 T00401115  RH  032%=      5-min Rain = 0
KFVS 121800Z 11011G17KT 04/M12 A3031 RMK A01 T00391115  RH  032%=      5-min Rain = 0
KFVS 121805Z 10011KT 04/M12 A3031 RMK A01 T00421115  RH  031%=      5-min Rain = 0
KFVS 121810Z 10010G15KT 04/M11 A3031 RMK A01 T00421114  RH  032%=      5-min Rain = 0
KFVS 121815Z 10010G15KT 04/M12 A3031 RMK A01 T00441115  RH  031%=      5-min Rain = 0
KFVS 121820Z 10010G15KT 05/M11 A303 RMK A01 T00471113  RH  031%=      5-min Rain = 0
KFVS 121825Z 10009G15KT 05/M11 A303 RMK A01 T00481113  RH  031%=      5-min Rain = 0
KFVS 121830Z 12011G16KT 05/M11 A303 RMK A01 T00511112  RH  030%=      5-min Rain = 0
KFVS 121835Z 11012KT 05/M11 A303 RMK A01 T00531112  RH  030%=      5-min Rain = 0
KFVS 121840Z 09011G16KT 05/M11 A3029 RMK A01 T00531111  RH  030%=      5-min Rain = 0
KFVS 121845Z 11010G15KT 06/M11 A3029 RMK A01 T00561111  RH  029%=      5-min Rain = 0
KFVS 121850Z 11010G16KT 06/M11 A3029 RMK A01 T00551112  RH  029%=      5-min Rain = 0
KFVS 121855Z 11012G17KT 06/M11 A3028 RMK A01 T00561111  RH  029%=      5-min Rain = 0
KFVS 121900Z 11010G16KT 06/M11 A3028 RMK A01 T00581111  RH  029%=      5-min Rain = 0
KFVS 121905Z 11011G18KT 06/M11 A3027 RMK A01 T00601111  RH  029%=      5-min Rain = 0
KFVS 121910Z 12009G14KT 06/M11 A3027 RMK A01 T00591110  RH  029%=      5-min Rain = 0
KFVS 121915Z 10011KT 06/M11 A3027 RMK A01 T00591111  RH  029%=      5-min Rain = 0
KFVS 121920Z 11010G15KT 06/M11 A3026 RMK A01 T00591110  RH  029%=      5-min Rain = 0
KFVS 121925Z 12011KT 06/M11 A3026 RMK A01 T00641110  RH  028%=      5-min Rain = 0
KFVS 121930Z 10009G15KT 07/M11 A3026 RMK A01 T00651110  RH  028%=      5-min Rain = 0
KFVS 121935Z 10010G17KT 07/M11 A3025 RMK A01 T00681109  RH  027%=      5-min Rain = 0
KFVS 121940Z 11010KT 07/M11 A3025 RMK A01 T00691109  RH  027%=      5-min Rain = 0
KFVS 121945Z 12010G17KT 07/M11 A3025 RMK A01 T00671110  RH  027%=      5-min Rain = 0
KFVS 121950Z 10009G17KT 07/M11 A3024 RMK A01 T00651109  RH  028%=      5-min Rain = 0
KFVS 121955Z 09010KT 07/M11 A3024 RMK A01 T00711109  RH  027%=      5-min Rain = 0
KFVS 122000Z 11010G15KT 07/M11 A3023 RMK A01 T00701109  RH  027%=      5-min Rain = 0
KFVS 122005Z 10011G18KT 07/M11 A3023 RMK A01 T00721108  RH  027%=      5-min Rain = 0
KFVS 122010Z 11010G15KT 07/M11 A3023 RMK A01 T00711107  RH  027%=      5-min Rain = 0
KFVS 122015Z 11011G17KT 08/M11 A3023 RMK A01 T00751107  RH  027%=      5-min Rain = 0
KFVS 122020Z 11010G16KT 08/M11 A3023 RMK A01 T00761107  RH  026%=      5-min Rain = 0
KFVS 122025Z 12009G14KT 08/M11 A3022 RMK A01 T00771106  RH  026%=      5-min Rain = 0
KFVS 122030Z 12011KT 08/M11 A3022 RMK A01 T00771106  RH  026%=      5-min Rain = 0
KFVS 122035Z 12011G16KT 08/M11 A3022 RMK A01 T00781105  RH  026%=      5-min Rain = 0
KFVS 122040Z 13009G15KT 08/M11 A3022 RMK A01 T00811105  RH  026%=      5-min Rain = 0
KFVS 122045Z 12011KT 08/M11 A3022 RMK A01 T00811105  RH  026%=      5-min Rain = 0
KFVS 122050Z 11010G16KT 08/M11 A3022 RMK A01 T00821105  RH  026%=      5-min Rain = 0
KFVS 122055Z 12011G17KT 08/M10 A3021 RMK A01 T00821104  RH  026%=      5-min Rain = 0
KFVS 122100Z 13010G15KT 08/M10 A3021 RMK A01 T00831104  RH  026%=      5-min Rain = 0
KFVS 122105Z 11011G16KT 09/M10 A3021 RMK A01 T00861104  RH  025%=      5-min Rain = 0
KFVS 122110Z 11013G18KT 09/M10 A3021 RMK A01 T00861104  RH  025%=      5-min Rain = 0
KFVS 122115Z 13011G17KT 09/M10 A302 RMK A01 T00851104  RH  025%=      5-min Rain = 0
KFVS 122120Z 11013KT 09/M10 A302 RMK A01 T00851104  RH  025%=      5-min Rain = 0
KFVS 122125Z 10009G15KT 08/M10 A302 RMK A01 T00841104  RH  026%=      5-min Rain = 0
KFVS 122130Z 12011G16KT 09/M10 A302 RMK A01 T00871103  RH  025%=      5-min Rain = 0
KFVS 122135Z 12012G17KT 09/M10 A302 RMK A01 T00851104  RH  025%=      5-min Rain = 0
KFVS 122140Z 11011KT 08/M10 A302 RMK A01 T00821104  RH  026%=      5-min Rain = 0
KFVS 122145Z 11011KT 08/M10 A302 RMK A01 T00831104  RH  026%=      5-min Rain = 0
KFVS 122150Z 11010G15KT 09/M10 A302 RMK A01 T00871103  RH  025%=      5-min Rain = 0
KFVS 122155Z 10011KT 09/M10 A302 RMK A01 T00861103  RH  025%=      5-min Rain = 0
KFVS 122200Z 11011KT 09/M10 A302 RMK A01 T00851103  RH  026%=      5-min Rain = 0
KFVS 122205Z 11012KT 08/M10 A302 RMK A01 T00831104  RH  026%=      5-min Rain = 0
KFVS 122210Z 11010KT 08/M10 A302 RMK A01 T00841103  RH  026%=      5-min Rain = 0
KFVS 122215Z 10011G16KT 09/M10 A302 RMK A01 T00871102  RH  025%=      5-min Rain = 0
KFVS 122220Z 10012KT 09/M10 A302 RMK A01 T00861103  RH  025%=      5-min Rain = 0
KFVS 122225Z 09012KT 08/M10 A302 RMK A01 T00841103  RH  026%=      5-min Rain = 0
KFVS 122230Z 10011KT 08/M10 A302 RMK A01 T00831103  RH  026%=      5-min Rain = 0
KFVS 122235Z 10010KT 09/M10 A302 RMK A01 T00861101  RH  026%=      5-min Rain = 0
KFVS 122240Z 11010KT 09/M10 A302 RMK A01 T00871101  RH  026%=      5-min Rain = 0
KFVS 122245Z 09012G18KT 09/M10 A302 RMK A01 T00871101  RH  026%=      5-min Rain = 0
KFVS 122250Z 10012G17KT 09/M10 A3019 RMK A01 T00901100  RH  025%=      5-min Rain = 0
KFVS 122255Z 11011KT 09/M10 A3019 RMK A01 T00911100  RH  025%=      5-min Rain = 0
KFVS 122300Z 10011KT 09/M10 A302 RMK A01 T00891100  RH  025%=      5-min Rain = 0
KFVS 122305Z 09011G16KT 09/M10 A302 RMK A01 T00891100  RH  025%=      5-min Rain = 0
KFVS 122310Z 10011G16KT 09/M10 A302 RMK A01 T00891100  RH  025%=      5-min Rain = 0
KFVS 122315Z 10011KT 09/M10 A302 RMK A01 T00881101  RH  025%=      5-min Rain = 0
KFVS 122320Z 10012KT 09/M10 A3019 RMK A01 T00851101  RH  026%=      5-min Rain = 0
KFVS 122325Z 09012G17KT 09/M10 A3019 RMK A01 T00871100  RH  026%=      5-min Rain = 0
KFVS 122330Z 11012G17KT 09/M10 A3019 RMK A01 T00871100  RH  026%=      5-min Rain = 0
KFVS 122335Z 10012KT 09/M10 A3019 RMK A01 T00851100  RH  026%=      5-min Rain = 0
KFVS 122340Z 09011KT 09/M10 A3019 RMK A01 T00851100  RH  026%=      5-min Rain = 0
KFVS 122345Z 10012KT 08/M10 A3019 RMK A01 T00841100  RH  026%=      5-min Rain = 0
KFVS 122350Z 09011KT 08/M10 A3019 RMK A01 T00831100  RH  027%=      5-min Rain = 0
KFVS 122355Z 10011KT 08/M10 A3019 RMK A01 T00831100  RH  027%=      5-min Rain = 0
KFVS 130000Z 10010KT 08/M10 A3019 RMK A01 T00821100  RH  027%=      5-min Rain = 0
KFVS 130005Z 09010KT 08/M10 A3019 RMK A01 T00801100  RH  027%=      5-min Rain = 0
KFVS 130010Z 09011KT 08/M10 A3019 RMK A01 T00781100  RH  027%=      5-min Rain = 0
KFVS 130015Z 09011KT 08/M10 A3019 RMK A01 T00761101  RH  028%=      5-min Rain = 0
KFVS 130020Z 09010KT 07/M10 A302 RMK A01 T00741101  RH  028%=      5-min Rain = 0
KFVS 130025Z 09009KT 07/M10 A302 RMK A01 T00711102  RH  028%=      5-min Rain = 0
KFVS 130030Z 09009KT 07/M10 A302 RMK A01 T00681103  RH  029%=      5-min Rain = 0
KFVS 130035Z 09009KT 07/M10 A302 RMK A01 T00651103  RH  029%=      5-min Rain = 0
KFVS 130040Z 09009KT 06/M10 A302 RMK A01 T00621103  RH  030%=      5-min Rain = 0
KFVS 130045Z 09009KT 06/M10 A302 RMK A01 T00591103  RH  030%=      5-min Rain = 0
KFVS 130050Z 09008KT 06/M10 A3021 RMK A01 T00571104  RH  031%=      5-min Rain = 0
KFVS 130055Z 09008KT 05/M11 A3021 RMK A01 T00541105  RH  031%=      5-min Rain = 0
KFVS 130100Z 09008KT 05/M10 A3021 RMK A01 T00521104  RH  032%=      5-min Rain = 0
KFVS 130105Z 09008KT 05/M10 A3021 RMK A01 T00521104  RH  032%=      5-min Rain = 0
KFVS 130110Z 10008KT 05/M11 A3021 RMK A01 T00491105  RH  032%=      5-min Rain = 0
KFVS 130115Z 10008KT 05/M11 A3021 RMK A01 T00451106  RH  033%=      5-min Rain = 0
KFVS 130120Z 10008KT 04/M11 A3022 RMK A01 T00441105  RH  033%=      5-min Rain = 0
KFVS 130125Z 10008KT 04/M10 A3022 RMK A01 T00441104  RH  034%=      5-min Rain = 0
KFVS 130130Z 09008KT 04/M10 A3022 RMK A01 T00431104  RH  034%=      5-min Rain = 0
KFVS 130135Z 09009KT 04/M10 A3022 RMK A01 T00411104  RH  034%=      5-min Rain = 0
KFVS 130140Z 10009KT 04/M10 A3022 RMK A01 T00401104  RH  035%=      5-min Rain = 0
KFVS 130145Z 10008KT 04/M10 A3022 RMK A01 T00381103  RH  035%=      5-min Rain = 0
KFVS 130150Z 09008KT 04/M10 A3022 RMK A01 T00371103  RH  036%=      5-min Rain = 0
KFVS 130155Z 10008KT 04/M10 A3022 RMK A01 T00371102  RH  036%=      5-min Rain = 0
KFVS 130200Z 10008KT 04/M10 A3022 RMK A01 T00371102  RH  036%=      5-min Rain = 0
KFVS 130205Z 10009KT 04/M10 A3022 RMK A01 T00381100  RH  036%=      5-min Rain = 0
KFVS 130210Z 10009KT 04/M10 A3022 RMK A01 T00381100  RH  036%=      5-min Rain = 0
KFVS 130215Z 09008KT 04/M10 A3022 RMK A01 T00361101  RH  036%=      5-min Rain = 0
KFVS 130220Z 09008KT 03/M10 A3023 RMK A01 T00341101  RH  037%=      5-min Rain = 0
KFVS 130225Z 09009KT 04/M10 A3023 RMK A01 T00371099  RH  037%=      5-min Rain = 0
KFVS 130230Z 09009KT 04/M10 A3023 RMK A01 T00381099  RH  037%=      5-min Rain = 0
KFVS 130235Z 09009KT 04/M10 A3023 RMK A01 T00381100  RH  036%=      5-min Rain = 0
KFVS 130240Z 09008KT 04/M10 A3023 RMK A01 T00351101  RH  037%=      5-min Rain = 0
KFVS 130245Z 09007KT 03/M10 A3023 RMK A01 T00311102  RH  037%=      5-min Rain = 0
KFVS 130250Z 09006KT 03/M10 A3023 RMK A01 T00271103  RH  038%=      5-min Rain = 0
KFVS 130255Z 08006KT 02/M11 A3023 RMK A01 T00221105  RH  039%=      5-min Rain = 0
KFVS 130300Z 08008KT 02/M10 A3024 RMK A01 T00211102  RH  040%=      5-min Rain = 0
KFVS 130305Z 09009KT 03/M10 A3024 RMK A01 T00271098  RH  040%=      5-min Rain = 0
KFVS 130310Z 09009KT 03/M10 A3023 RMK A01 T00291098  RH  039%=      5-min Rain = 0
KFVS 130315Z 08008KT 03/M10 A3024 RMK A01 T00281099  RH  039%=      5-min Rain = 0
KFVS 130320Z 08008KT 03/M10 A3024 RMK A01 T00271099  RH  039%=      5-min Rain = 0
KFVS 130325Z 09008KT 03/M10 A3024 RMK A01 T00261099  RH  040%=      5-min Rain = 0
KFVS 130330Z 09007KT 03/M10 A3024 RMK A01 T00251099  RH  040%=      5-min Rain = 0
KFVS 130335Z 09007KT 02/M10 A3024 RMK A01 T00231099  RH  041%=      5-min Rain = 0
KFVS 130340Z 09008KT 02/M10 A3025 RMK A01 T00231099  RH  041%=      5-min Rain = 0
KFVS 130345Z 09008KT 02/M10 A3025 RMK A01 T00241098  RH  041%=      5-min Rain = 0
KFVS 130350Z 09008KT 02/M10 A3025 RMK A01 T00241098  RH  040%=      5-min Rain = 0
KFVS 130355Z 09008KT 02/M10 A3025 RMK A01 T00241098  RH  041%=      5-min Rain = 0
KFVS 130400Z 09008KT 02/M10 A3025 RMK A01 T00201099  RH  041%=      5-min Rain = 0
KFVS 130405Z 09009KT 02/M10 A3026 RMK A01 T00201098  RH  042%=      5-min Rain = 0
KFVS 130410Z 09008KT 02/M10 A3026 RMK A01 T00191099  RH  042%=      5-min Rain = 0
KFVS 130415Z 09008KT 02/M10 A3026 RMK A01 T00171100  RH  042%=      5-min Rain = 0
KFVS 130420Z 09008KT 02/M10 A3026 RMK A01 T00151100  RH  043%=      5-min Rain = 0
KFVS 130425Z 09008KT 02/M10 A3026 RMK A01 T00151100  RH  043%=      5-min Rain = 0
KFVS 130430Z 09008KT 02/M10 A3026 RMK A01 T00151099  RH  043%=      5-min Rain = 0
KFVS 130435Z 09008KT 02/M10 A3026 RMK A01 T00151099  RH  043%=      5-min Rain = 0
KFVS 130440Z 09008KT 01/M10 A3026 RMK A01 T00131100  RH  043%=      5-min Rain = 0
KFVS 130445Z 09008KT 01/M10 A3026 RMK A01 T00121099  RH  044%=      5-min Rain = 0
KFVS 130450Z 09007KT 01/M10 A3026 RMK A01 T00101100  RH  044%=      5-min Rain = 0
KFVS 130455Z 09007KT 01/M10 A3026 RMK A01 T00081100  RH  045%=      5-min Rain = 0
KFVS 130500Z 09008KT 01/M10 A3026 RMK A01 T00051100  RH  046%=      5-min Rain = 0
KFVS 130505Z 09007KT 01/M10 A3026 RMK A01 T00051099  RH  046%=      5-min Rain = 0
KFVS 130510Z 09006KT 00/M10 A3026 RMK A01 T00031101  RH  046%=      5-min Rain = 0
KFVS 130515Z 09006KT M00/M10 A3026 RMK A01 T10011102  RH  047%=      5-min Rain = 0
KFVS 130520Z 08007KT M00/M10 A3026 RMK A01 T10041102  RH  048%=      5-min Rain = 0
KFVS 130525Z 08007KT M01/M10 A3026 RMK A01 T10051101  RH  049%=      5-min Rain = 0
KFVS 130530Z 08008KT M00/M10 A3026 RMK A01 T10041099  RH  049%=      5-min Rain = 0
KFVS 130535Z 08007KT M00/M10 A3026 RMK A01 T10021097  RH  049%=      5-min Rain = 0
KFVS 130540Z 08007KT 00/10 A3026 RMK A01 T00-00-95  RH  050%=      5-min Rain = 0
KFVS 130545Z 09008KT 00/M10 A3026 RMK A01 T00011095  RH  049%=      5-min Rain = 0
KFVS 130550Z 08007KT M00/M10 A3025 RMK A01 T10011096  RH  050%=      5-min Rain = 0
KFVS 130555Z 07006KT M01/M10 A3025 RMK A01 T10051098  RH  050%=      5-min Rain = 0

Page generated in 0.0707 seconds.